To NAV CANADA Home Page Login to a new session Search on AWWS site Disclaimer Vers la page française équivalente Tips FAQ What's new on the site To the Forecasts and Observations / NOTAM section To "File a Flight Plan" website Publications and other links Update of the User's profile FIC Telephone Numbers My Weather Data Folder Route Weather Data Regional Weather Data Local Weather Data To the Forecasts and Observations / NOTAM section
Request Generated 09/22/2021 at 13:58:15 UTC . Weather information available at that time is displayed.

METAR/TAF

If you find any discrepancies between the coded METAR/TAF and the plain language METAR/TAF please use the coded METAR/TAF. LWIS bulletins are not decoded in plain language.

TORONTO/BILLY BISHOP TORONTO CITY AIRPORT/ON    (show WxCam)

SPECI CYTZ 221324Z AUTO 35008KT 6SM -RA BR OVC016 17/16 A2989 RMK SLP124 DENSIT ALT 600FT=
SPECI
LOCATION
CYTZ - TORONTO/BILLY BISHOP TORONTO CITY A
DATE - TIME
22 SEPTEMBER 2021 - 1324 UTC
WIND
350 TRUE @ 8  KNOTS
VISIBILITY
6 STAT.  MILES
RUNWAY VISUAL RANGE
WEATHER
LIGHT RAIN
MIST
CLOUDINESS
OVERCAST 1600  FT
TEMP / DEWPOINT
17 C / 16 C
ALTIMETER
29.89 IN HG
RECENT WEATHER
WIND SHEAR

METAR CYTZ 221300Z AUTO 35005KT 3SM -RA BR OVC016 17/16 A2990 RMK SLP126 DENSIT ALT 700FT=
METAR
LOCATION
CYTZ - TORONTO/BILLY BISHOP TORONTO CITY A
DATE - TIME
22 SEPTEMBER 2021 - 1300 UTC
WIND
350 TRUE @ 5  KNOTS
VISIBILITY
3 STAT.  MILES
RUNWAY VISUAL RANGE
WEATHER
LIGHT RAIN
MIST
CLOUDINESS
OVERCAST 1600  FT
TEMP / DEWPOINT
17 C / 16 C
ALTIMETER
29.90 IN HG
RECENT WEATHER
WIND SHEAR

SPECI CYTZ 221252Z AUTO 36006KT 4SM -RA BR OVC016 17/16 A2990 RMK SLP126 DENSIT ALT 700FT=
SPECI
LOCATION
CYTZ - TORONTO/BILLY BISHOP TORONTO CITY A
DATE - TIME
22 SEPTEMBER 2021 - 1252 UTC
WIND
360 TRUE @ 6  KNOTS
VISIBILITY
4 STAT.  MILES
RUNWAY VISUAL RANGE
WEATHER
LIGHT RAIN
MIST
CLOUDINESS
OVERCAST 1600  FT
TEMP / DEWPOINT
17 C / 16 C
ALTIMETER
29.90 IN HG
RECENT WEATHER
WIND SHEAR

SPECI CYTZ 221236Z AUTO 36012KT 6SM -RA BR OVC016 17/16 A2990 RMK SLP127 DENSIT ALT 600FT=
SPECI
LOCATION
CYTZ - TORONTO/BILLY BISHOP TORONTO CITY A
DATE - TIME
22 SEPTEMBER 2021 - 1236 UTC
WIND
360 TRUE @ 12  KNOTS
VISIBILITY
6 STAT.  MILES
RUNWAY VISUAL RANGE
WEATHER
LIGHT RAIN
MIST
CLOUDINESS
OVERCAST 1600  FT
TEMP / DEWPOINT
17 C / 16 C
ALTIMETER
29.90 IN HG
RECENT WEATHER
WIND SHEAR

SPECI CYTZ 221210Z AUTO 34011G16KT 3SM -RA BR BKN011 OVC018 17/16 A2991 RMK SLP 9 DENSITY ALT 600FT=
SPECI
LOCATION
CYTZ - TORONTO/BILLY BISHOP TORONTO CITY A
DATE - TIME
22 SEPTEMBER 2021 - 1210 UTC
WIND
340 TRUE @ 11  KNOTS
GUSTS
16 KNOTS
VISIBILITY
3 STAT.  MILES
RUNWAY VISUAL RANGE
WEATHER
LIGHT RAIN
MIST
CLOUDINESS
BROKEN CLOUDS (5/8 - 7/8) 1100  FT
OVERCAST 1800  FT
TEMP / DEWPOINT
17 C / 16 C
ALTIMETER
29.91 IN HG
RECENT WEATHER
WIND SHEAR

SPECI CYTZ 221206Z AUTO 35011KT 3SM -RA BR BKN009 BKN013 OVC019 17/17 A2991 RMK LP129 DENSITY ALT 600FT=
SPECI
LOCATION
CYTZ - TORONTO/BILLY BISHOP TORONTO CITY A
DATE - TIME
22 SEPTEMBER 2021 - 1206 UTC
WIND
350 TRUE @ 11  KNOTS
VISIBILITY
3 STAT.  MILES
RUNWAY VISUAL RANGE
WEATHER
LIGHT RAIN
MIST
CLOUDINESS
BROKEN CLOUDS (5/8 - 7/8) 900  FT
BROKEN CLOUDS (5/8 - 7/8) 1300  FT
OVERCAST 1900  FT
TEMP / DEWPOINT
17 C / 17 C
ALTIMETER
29.91 IN HG
RECENT WEATHER
WIND SHEAR

SPECI CYTZ 221204Z AUTO 34011KT 3SM -RA BR SCT009 BKN013 OVC019 17/17 A2991 RMK LP129 DENSITY ALT 700FT=
SPECI
LOCATION
CYTZ - TORONTO/BILLY BISHOP TORONTO CITY A
DATE - TIME
22 SEPTEMBER 2021 - 1204 UTC
WIND
340 TRUE @ 11  KNOTS
VISIBILITY
3 STAT.  MILES
RUNWAY VISUAL RANGE
WEATHER
LIGHT RAIN
MIST
CLOUDINESS
SCATTERED CLOUDS (3/8 - 4/8) 900  FT
BROKEN CLOUDS (5/8 - 7/8) 1300  FT
OVERCAST 1900  FT
TEMP / DEWPOINT
17 C / 17 C
ALTIMETER
29.91 IN HG
RECENT WEATHER
WIND SHEAR

METAR CYTZ 221200Z AUTO 33009KT 3SM -RA BR BKN009 BKN015 OVC021 18/17 A2991 RMK CPN 3.5MM PAST HR SLP129 DENSITY ALT 700FT=
METAR
LOCATION
CYTZ - TORONTO/BILLY BISHOP TORONTO CITY A
DATE - TIME
22 SEPTEMBER 2021 - 1200 UTC
WIND
330 TRUE @ 9  KNOTS
VISIBILITY
3 STAT.  MILES
RUNWAY VISUAL RANGE
WEATHER
LIGHT RAIN
MIST
CLOUDINESS
BROKEN CLOUDS (5/8 - 7/8) 900  FT
BROKEN CLOUDS (5/8 - 7/8) 1500  FT
OVERCAST 2100  FT
TEMP / DEWPOINT
18 C / 17 C
ALTIMETER
29.91 IN HG
RECENT WEATHER
WIND SHEAR

SPECI CYTZ 221156Z AUTO 33008KT 3SM -RA BR BKN009 OVC015 18/17 A2991 RMK SLP129 ENSITY ALT 700FT=
SPECI
LOCATION
CYTZ - TORONTO/BILLY BISHOP TORONTO CITY A
DATE - TIME
22 SEPTEMBER 2021 - 1156 UTC
WIND
330 TRUE @ 8  KNOTS
VISIBILITY
3 STAT.  MILES
RUNWAY VISUAL RANGE
WEATHER
LIGHT RAIN
MIST
CLOUDINESS
BROKEN CLOUDS (5/8 - 7/8) 900  FT
OVERCAST 1500  FT
TEMP / DEWPOINT
18 C / 17 C
ALTIMETER
29.91 IN HG
RECENT WEATHER
WIND SHEAR

SPECI CYTZ 221151Z AUTO 33009KT 3SM -RA BR SCT009 OVC013 18/17 A2991 RMK SLP129 ENSITY ALT 700FT=
SPECI
LOCATION
CYTZ - TORONTO/BILLY BISHOP TORONTO CITY A
DATE - TIME
22 SEPTEMBER 2021 - 1151 UTC
WIND
330 TRUE @ 9  KNOTS
VISIBILITY
3 STAT.  MILES
RUNWAY VISUAL RANGE
WEATHER
LIGHT RAIN
MIST
CLOUDINESS
SCATTERED CLOUDS (3/8 - 4/8) 900  FT
OVERCAST 1300  FT
TEMP / DEWPOINT
18 C / 17 C
ALTIMETER
29.91 IN HG
RECENT WEATHER
WIND SHEAR

SPECI CYTZ 221110Z AUTO 00000KT 3SM RA BR OVC006 19/19 A2991 RMK SLP130 DENSITY LT 900FT=
SPECI
LOCATION
CYTZ - TORONTO/BILLY BISHOP TORONTO CITY A
DATE - TIME
22 SEPTEMBER 2021 - 1110 UTC
WIND
CALM
VISIBILITY
3 STAT.  MILES
RUNWAY VISUAL RANGE
WEATHER
MODERATE RAIN
MIST
CLOUDINESS
OVERCAST 600  FT
TEMP / DEWPOINT
19 C / 19 C
ALTIMETER
29.91 IN HG
RECENT WEATHER
WIND SHEAR

METAR CYTZ 221100Z AUTO 19005KT 140V240 2SM RA BR BKN008 BKN013 OVC018 20/19 A2 1 RMK VIS VRB 1 1/2-3 SLP131 DENSITY ALT 900FT=
METAR
LOCATION
CYTZ - TORONTO/BILLY BISHOP TORONTO CITY A
DATE - TIME
22 SEPTEMBER 2021 - 1100 UTC
WIND
190 TRUE @ 5  KNOTS
VARIATION
140 <-> 240  DEG
VISIBILITY
2 STAT.  MILES
RUNWAY VISUAL RANGE
WEATHER
MODERATE RAIN
MIST
CLOUDINESS
BROKEN CLOUDS (5/8 - 7/8) 800  FT
BROKEN CLOUDS (5/8 - 7/8) 1300  FT
OVERCAST 1800  FT
TEMP / DEWPOINT
20 C / 19 C
ALTIMETER
29.10 IN HG
RECENT WEATHER
WIND SHEAR

TAF CYTZ 221340Z 2214/2314 36008KT 6SM -RA BR SCT005 OVC012 TEMPO 2214/2303 2SM RA BR OVC005 BECMG 2217/2219 36015G25KT FM230300 01010KT 6SM -RA BR SCT005 OVC012 TEMPO 2303/2312 2SM RA BR OVC005 BECMG 2309/2311 11008KT FM231200 24006KT P6SM BKN007 RMK FCST BASED ON AUTO OBS. NXT FCST BY 222000Z=
TAF
LOCATION

CYTZ - TORONTO/BILLY BISHOP TORONTO CITY AIRPORT/ON
VALIDITY [UTC]
22 SEP - 1340 to
23 SEP - 1400
 
TIMES
[UTC]
WIND
[DEGREES TRUE]
VISIBILITY
[STAT. MILES]
WEATHER
CLOUDINESS
[FEET AGL]
 
22 SEP - 1400 to
23 SEP - 0300
360 @ 8 KNOTS
6
LIGHT RAIN
MIST
500 SCATTERED
1200 OVERCAST
TEMPORARY CHANGES
22 SEP - 1400 to
23 SEP - 0300
 
2
MODERATE RAIN
MIST
500 OVERCAST
BECOMING
22 SEP - 1700 to
22 SEP - 1900
360 @ 15 KNOTS
GUSTS 25 KNOTS
 
 
 
 
23 SEP - 0300 to
23 SEP - 1200
10 @ 10 KNOTS
6
LIGHT RAIN
MIST
500 SCATTERED
1200 OVERCAST
TEMPORARY CHANGES
23 SEP - 0300 to
23 SEP - 1200
 
2
MODERATE RAIN
MIST
500 OVERCAST
BECOMING
23 SEP - 0900 to
23 SEP - 1100
110 @ 8 KNOTS
 
 
 
 
23 SEP - 1200 to
23 SEP - 1400
240 @ 6 KNOTS
6+
NIL
700 BROKEN
REMARKS
THE FORECAST IS BASED ON AUTOMATIC OBSERVATIONS - THE NEXT FORECAST WILL BE ISSUED BY 2000 UTC ON DAY 22


Your time UTC time
Weather data provided by Environment Canada and NAV CANADA